Time;durP1;ratioP1;P1;durP2;ratioP2;P2;SDS_P1;SDS_P2;PMS_P1;PMS_P2;Temp;Humidity;BMP_temperature;BMP_pressure;BME280_temperature;BME280_humidity;BME280_pressure;Samples;Min_cycle;Max_cycle;Signal;HPM_P1;HPM_P2
2024/03/18 00:01:10;;;;;;;;;;;;;;;12.26;61.79;100005.75;4131726;28;19910;-68
2024/03/18 00:03:11;;;;;;;;;;;;;;;12.22;61.98;100000.88;4131371;28;19996;-68
2024/03/18 00:05:12;;;;;;;;;;;;;;;12.15;62.34;100003.34;4145673;28;19910;-68
2024/03/18 00:07:12;;;;;;;;;;;;;;;12.16;62.33;99991.63;4130432;28;20680;-66
2024/03/18 00:09:12;;;;;;;;;;;;;;;12.09;62.71;99995.94;4131107;28;19916;-68
2024/03/18 00:11:13;;;;;;;;;;;;;;;12.25;62.56;99992.50;4131846;28;19914;-68
2024/03/18 00:13:13;;;;;;;;;;;;;;;12.38;61.90;99992.94;4131683;28;19910;-69
2024/03/18 00:15:14;;;;;;;;;;;;;;;12.48;61.24;99992.81;4130534;28;19918;-67
2024/03/18 00:17:15;;;;;;;;;;;;;;;12.40;61.75;99996.31;4131189;28;19918;-68
2024/03/18 00:19:15;;;;;;;;;;;;;;;12.33;61.52;99998.78;4146258;28;20350;-66
2024/03/18 00:21:15;;;;;;;;;;;;;;;12.56;61.04;99987.53;4131236;28;19949;-67
2024/03/18 00:23:16;;;;;;;;;;;;;;;12.47;61.32;99994.66;4131061;28;19972;-67
2024/03/18 00:25:16;;;;;;;;;;;;;;;12.42;62.16;99994.28;4131034;28;19960;-66
2024/03/18 00:27:16;;;;;;;;;;;;;;;12.63;61.69;99990.38;4129517;28;19957;-69
2024/03/18 00:29:17;;;;;;;;;;;;;;;12.62;61.78;99988.69;4131188;28;19909;-70
2024/03/18 00:31:17;;;;;;;;;;;;;;;12.41;61.99;100011.41;4130009;28;19997;-67
2024/03/18 00:33:18;;;;;;;;;;;;;;;12.40;62.06;100006.16;4131000;28;19917;-67
2024/03/18 00:35:19;;;;;;;;;;;;;;;12.23;62.95;99998.03;4130836;28;20445;-68
2024/03/18 00:37:19;;;;;;;;;;;;;;;12.15;63.21;100003.34;4130775;28;19929;-68
2024/03/18 00:39:19;;;;;;;;;;;;;;;12.08;63.59;99996.91;4130799;28;19916;-68
2024/03/18 00:43:38;;;;;;;;;;;;;;;12.25;63.62;99988.00;4131653;28;19951;-68
2024/03/18 00:45:39;;;;;;;;;;;;;;;12.33;63.27;99988.06;4135559;28;20370;-69
2024/03/18 00:47:39;;;;;;;;;;;;;;;12.55;62.58;99983.16;4143090;28;19932;-68
2024/03/18 00:49:39;;;;;;;;;;;;;;;12.53;62.49;99971.75;4131937;28;20282;-68
2024/03/18 00:51:41;;;;;;;;;;;;;;;12.54;62.68;99981.47;4130606;28;19917;-68
2024/03/18 00:53:41;;;;;;;;;;;;;;;12.50;62.51;99972.06;4130937;28;19981;-68
2024/03/18 00:55:42;;;;;;;;;;;;;;;12.32;62.93;99982.84;4129209;28;19953;-68
2024/03/18 00:57:42;;;;;;;;;;;;;;;12.20;63.21;99979.56;4130653;28;19910;-67
2024/03/18 00:59:42;;;;;;;;;;;;;;;12.21;63.59;99975.91;4131463;28;19910;-69
2024/03/18 01:01:43;;;;;;;;;;;;;;;12.20;63.26;99978.75;4131200;28;19909;-68
2024/03/18 01:03:43;;;;;;;;;;;;;;;12.19;63.40;99971.69;4130400;28;20001;-67
2024/03/18 01:05:44;;;;;;;;;;;;;;;12.18;63.43;99973.56;4130693;28;20021;-67
2024/03/18 01:07:44;;;;;;;;;;;;;;;12.20;63.50;99970.72;4128383;28;20317;-67
2024/03/18 01:09:46;;;;;;;;;;;;;;;12.29;63.20;99961.72;4130397;28;20358;-68
2024/03/18 01:11:49;;;;;;;;;;;;;;;12.31;62.81;99954.38;4130694;28;19964;-67
2024/03/18 01:13:49;;;;;;;;;;;;;;;12.15;63.81;99952.41;4130577;28;19996;-67
2024/03/18 01:15:49;;;;;;;;;;;;;;;11.99;63.99;99950.47;4130464;28;19953;-68
2024/03/18 01:17:51;;;;;;;;;;;;;;;12.19;63.89;99947.59;4130756;28;19936;-67
2024/03/18 01:19:52;;;;;;;;;;;;;;;12.30;63.42;99942.78;4129473;28;19914;-69
2024/03/18 01:21:53;;;;;;;;;;;;;;;12.42;62.69;99946.03;4129997;28;19910;-69
2024/03/18 01:23:53;;;;;;;;;;;;;;;12.36;62.78;99945.84;4130462;28;20005;-68
2024/03/18 01:25:54;;;;;;;;;;;;;;;12.40;62.72;99941.84;4130167;28;19960;-68
2024/03/18 01:27:54;;;;;;;;;;;;;;;12.34;62.80;99937.94;4129912;28;19916;-67
2024/03/18 01:29:55;;;;;;;;;;;;;;;12.49;62.75;99932.84;4130683;28;19910;-68
2024/03/18 01:31:56;;;;;;;;;;;;;;;12.62;62.20;99938.59;4130480;28;19909;-68
2024/03/18 01:33:56;;;;;;;;;;;;;;;12.60;62.47;99939.78;4133952;28;19910;-68
2024/03/18 01:35:57;;;;;;;;;;;;;;;12.70;62.16;99928.91;4132060;28;20424;-70
2024/03/18 01:37:58;;;;;;;;;;;;;;;12.62;63.09;99933.25;4132364;28;20052;-69
2024/03/18 01:39:58;;;;;;;;;;;;;;;12.46;63.14;99934.00;4133858;28;19921;-68
2024/03/18 01:41:59;;;;;;;;;;;;;;;12.42;63.69;99932.63;4140177;28;19945;-68
2024/03/18 01:44:02;;;;;;;;;;;;;;;12.11;64.22;99930.47;4148084;28;19894;-71
2024/03/18 01:46:14;;;;;;;;;;;;;;;12.04;64.39;99932.09;4149638;28;19910;-68
2024/03/18 01:48:16;;;;;;;;;;;;;;;12.04;64.79;99925.88;4148803;28;19921;-70
2024/03/18 01:50:18;;;;;;;;;;;;;;;12.15;64.12;99923.75;4147258;28;19984;-69
2024/03/18 01:52:19;;;;;;;;;;;;;;;12.08;64.24;99912.00;4143624;28;19937;-70
2024/03/18 01:54:20;;;;;;;;;;;;;;;11.97;64.21;99907.75;4139325;28;19937;-67
2024/03/18 01:56:21;;;;;;;;;;;;;;;12.09;63.50;99894.94;4138227;28;19914;-68
2024/03/18 01:58:21;;;;;;;;;;;;;;;12.01;63.97;99901.06;4137991;28;19909;-68
2024/03/18 02:00:37;;;;;;;;;;;;;;;11.80;64.46;99911.28;4137133;28;19917;-69
2024/03/18 02:02:40;;;;;;;;;;;;;;;11.96;64.08;99914.09;4135096;28;19910;-68
2024/03/18 02:04:40;;;;;;;;;;;;;;;12.16;63.39;99919.28;4135517;28;19917;-67
2024/03/18 02:06:41;;;;;;;;;;;;;;;12.20;63.20;99915.25;4131985;28;19910;-67
2024/03/18 02:08:43;;;;;;;;;;;;;;;12.30;62.94;99913.31;4130696;28;19909;-69
2024/03/18 02:10:43;;;;;;;;;;;;;;;12.27;62.84;99908.28;4130749;28;19917;-68
2024/03/18 02:12:43;;;;;;;;;;;;;;;12.27;63.31;99908.28;4144480;28;20365;-69
2024/03/18 02:14:46;;;;;;;;;;;;;;;12.27;62.91;99902.91;4128503;28;20064;-67
2024/03/18 02:16:46;;;;;;;;;;;;;;;12.00;63.85;99894.03;4134092;28;19914;-69
2024/03/18 02:18:47;;;;;;;;;;;;;;;11.95;63.96;99899.00;4141727;28;19910;-67
2024/03/18 02:20:47;;;;;;;;;;;;;;;11.91;64.65;99888.75;4130595;28;19910;-67
2024/03/18 02:22:48;;;;;;;;;;;;;;;11.79;64.60;99888.19;4129717;28;19909;-67
2024/03/18 02:24:48;;;;;;;;;;;;;;;12.00;64.33;99877.97;4129913;28;20390;-69
2024/03/18 02:26:48;;;;;;;;;;;;;;;12.20;63.39;99880.41;4129226;28;19913;-69
2024/03/18 02:28:50;;;;;;;;;;;;;;;12.08;63.75;99884.38;4129627;28;20429;-67
2024/03/18 02:30:50;;;;;;;;;;;;;;;12.23;62.96;99872.06;4129579;28;19980;-67
2024/03/18 02:32:50;;;;;;;;;;;;;;;12.28;62.81;99880.44;4127959;28;20004;-68
2024/03/18 02:34:51;;;;;;;;;;;;;;;12.39;62.46;99870.44;4129453;28;20013;-68
2024/03/18 02:36:52;;;;;;;;;;;;;;;12.33;62.48;99875.47;4128941;28;19913;-69
2024/03/18 02:38:52;;;;;;;;;;;;;;;12.31;62.83;99866.75;4128929;28;19922;-70
2024/03/18 02:40:52;;;;;;;;;;;;;;;12.20;63.05;99867.00;4129362;28;20366;-69
2024/03/18 02:42:53;;;;;;;;;;;;;;;12.23;63.13;99866.72;4129326;28;19918;-69
2024/03/18 02:44:53;;;;;;;;;;;;;;;12.39;62.46;99865.09;4129099;28;20299;-70
2024/03/18 02:46:53;;;;;;;;;;;;;;;12.36;62.95;99857.38;4123678;28;19925;-67
2024/03/18 02:48:54;;;;;;;;;;;;;;;12.34;62.49;99854.84;4125529;28;19983;-68
2024/03/18 02:50:54;;;;;;;;;;;;;;;12.40;62.56;99856.06;4129657;28;19944;-68
2024/03/18 02:52:55;;;;;;;;;;;;;;;12.44;62.40;99852.88;4132590;28;19910;-69
2024/03/18 02:54:55;;;;;;;;;;;;;;;12.42;62.36;99854.06;4132167;28;20149;-68
2024/03/18 02:56:55;;;;;;;;;;;;;;;12.39;62.65;99859.72;4131577;28;20285;-69
2024/03/18 02:58:56;;;;;;;;;;;;;;;12.40;62.30;99861.41;4132344;28;19968;-69
2024/03/18 03:00:56;;;;;;;;;;;;;;;12.34;62.46;99852.16;4129488;28;19909;-67
2024/03/18 03:02:56;;;;;;;;;;;;;;;12.38;62.31;99842.81;4131096;28;19931;-67
2024/03/18 03:04:57;;;;;;;;;;;;;;;12.17;62.99;99837.88;4131787;28;19937;-69
2024/03/18 03:06:58;;;;;;;;;;;;;;;11.99;63.45;99830.75;4131660;28;20288;-70
2024/03/18 03:08:58;;;;;;;;;;;;;;;12.03;63.64;99839.31;4131004;28;20000;-69
2024/03/18 03:11:03;;;;;;;;;;;;;;;12.00;63.49;99829.72;4131301;28;20008;-68
2024/03/18 03:13:03;;;;;;;;;;;;;;;11.91;63.81;99833.34;4132116;28;19909;-70
2024/03/18 03:15:04;;;;;;;;;;;;;;;11.76;64.82;99827.72;4131749;28;20386;-70
2024/03/18 03:17:06;;;;;;;;;;;;;;;11.82;64.50;99832.47;4131003;28;20437;-70
2024/03/18 03:19:08;;;;;;;;;;;;;;;11.59;65.58;99828.63;4131862;28;19964;-70
2024/03/18 03:21:09;;;;;;;;;;;;;;;11.66;65.35;99821.66;4131769;28;19909;-68
2024/03/18 03:23:11;;;;;;;;;;;;;;;11.61;65.07;99827.47;4131138;28;20301;-69
2024/03/18 03:25:12;;;;;;;;;;;;;;;11.59;65.36;99821.44;4131354;28;19917;-68
2024/03/18 03:27:12;;;;;;;;;;;;;;;11.49;65.45;99815.34;4146563;28;19913;-69
2024/03/18 03:29:13;;;;;;;;;;;;;;;11.45;65.71;99812.16;4132220;28;19910;-69
2024/03/18 03:31:14;;;;;;;;;;;;;;;11.48;65.83;99802.94;4130566;28;20012;-67
2024/03/18 03:33:15;;;;;;;;;;;;;;;11.57;65.62;99807.38;4144664;28;19952;-70
2024/03/18 03:35:15;;;;;;;;;;;;;;;11.76;65.11;99817.00;4115204;28;19914;-69
2024/03/18 03:37:15;;;;;;;;;;;;;;;11.82;64.60;99810.19;4115467;28;19958;-68
2024/03/18 03:39:16;;;;;;;;;;;;;;;11.91;64.29;99808.41;4115141;28;20489;-68
2024/03/18 03:41:16;;;;;;;;;;;;;;;11.99;64.20;99806.66;4115729;28;19910;-68
2024/03/18 03:43:17;;;;;;;;;;;;;;;12.08;63.66;99798.66;4130716;28;20537;-68
2024/03/18 03:45:23;;;;;;;;;;;;;;;12.10;63.39;99801.97;4130133;28;19910;-68
2024/03/18 03:47:25;;;;;;;;;;;;;;;11.98;64.10;99799.59;4132375;28;20261;-70
2024/03/18 03:49:28;;;;;;;;;;;;;;;11.88;64.65;99804.22;4139230;28;19960;-69
2024/03/18 03:51:28;;;;;;;;;;;;;;;11.85;64.30;99809.88;4132826;28;19916;-69
2024/03/18 03:53:29;;;;;;;;;;;;;;;11.84;64.46;99802.84;4130141;28;19957;-70
2024/03/18 03:55:29;;;;;;;;;;;;;;;11.85;64.14;99797.31;4131167;28;19914;-68
2024/03/18 03:57:29;;;;;;;;;;;;;;;11.87;64.00;99791.81;4131069;28;19921;-69
2024/03/18 03:59:30;;;;;;;;;;;;;;;11.78;64.40;99798.94;4129736;28;20004;-68
2024/03/18 04:01:30;;;;;;;;;;;;;;;11.86;64.27;99790.13;4129088;28;20275;-69
2024/03/18 04:03:31;;;;;;;;;;;;;;;11.88;64.03;99788.13;4130783;28;19915;-70
2024/03/18 04:05:32;;;;;;;;;;;;;;;11.87;64.04;99791.81;4130805;28;19916;-67
2024/03/18 04:07:32;;;;;;;;;;;;;;;11.91;64.01;99789.66;4131062;28;19984;-68
2024/03/18 04:09:32;;;;;;;;;;;;;;;11.86;63.86;99785.59;4129295;28;19910;-69
2024/03/18 04:11:33;;;;;;;;;;;;;;;11.76;64.47;99784.06;4130274;28;20019;-69
2024/03/18 04:13:33;;;;;;;;;;;;;;;11.78;64.58;99785.56;4131119;28;19916;-70
2024/03/18 04:15:34;;;;;;;;;;;;;;;11.79;64.46;99784.56;4130564;28;19936;-68
2024/03/18 04:17:34;;;;;;;;;;;;;;;11.75;64.48;99785.03;4130862;28;20274;-69
2024/03/18 04:19:35;;;;;;;;;;;;;;;11.77;64.57;99780.38;4131131;28;19909;-68
2024/03/18 04:21:36;;;;;;;;;;;;;;;11.74;64.63;99780.69;4129228;28;19910;-68
2024/03/18 04:23:36;;;;;;;;;;;;;;;11.67;64.92;99769.75;4128483;28;19910;-70
2024/03/18 04:25:37;;;;;;;;;;;;;;;11.58;65.13;99774.25;4129166;28;20482;-68
2024/03/18 04:27:37;;;;;;;;;;;;;;;11.65;65.00;99774.47;4130640;28;19957;-70
2024/03/18 04:29:39;;;;;;;;;;;;;;;11.62;65.15;99775.59;4129197;28;19909;-69
2024/03/18 04:31:39;;;;;;;;;;;;;;;11.62;64.97;99767.56;4130382;28;19913;-69
2024/03/18 04:33:40;;;;;;;;;;;;;;;11.68;64.92;99768.75;4129528;28;19949;-70
2024/03/18 04:35:40;;;;;;;;;;;;;;;11.73;64.59;99769.16;4130187;28;19917;-69
2024/03/18 04:37:47;;;;;;;;;;;;;;;11.77;64.31;99769.66;4130463;28;19957;-69
2024/03/18 04:39:48;;;;;;;;;;;;;;;11.79;64.67;99768.50;4129714;28;19914;-69
2024/03/18 04:41:48;;;;;;;;;;;;;;;11.70;64.49;99770.31;4130610;28;19921;-69
2024/03/18 04:43:48;;;;;;;;;;;;;;;11.69;64.54;99767.78;4130881;28;19914;-69
2024/03/18 04:45:49;;;;;;;;;;;;;;;11.60;65.15;99769.56;4130330;28;19913;-69
2024/03/18 04:47:50;;;;;;;;;;;;;;;11.62;64.74;99764.06;4128301;28;19938;-69
2024/03/18 04:49:50;;;;;;;;;;;;;;;11.75;64.59;99766.28;4128485;28;19914;-70
2024/03/18 04:51:51;;;;;;;;;;;;;;;11.86;64.20;99766.03;4129310;28;19936;-68
2024/03/18 04:53:51;;;;;;;;;;;;;;;11.89;64.13;99762.19;4130063;28;19906;-68
2024/03/18 04:55:52;;;;;;;;;;;;;;;11.76;64.18;99755.41;4128792;28;19914;-69
2024/03/18 04:57:55;;;;;;;;;;;;;;;11.74;64.65;99759.25;4116664;28;19921;-69
2024/03/18 04:59:55;;;;;;;;;;;;;;;11.86;63.96;99750.78;4114173;28;19910;-68
2024/03/18 05:01:55;;;;;;;;;;;;;;;11.82;64.44;99751.25;4112712;28;20310;-67
2024/03/18 05:03:56;;;;;;;;;;;;;;;11.80;64.51;99758.63;4113794;28;19981;-69
2024/03/18 05:05:56;;;;;;;;;;;;;;;11.79;64.40;99756.97;4113327;28;20340;-69
2024/03/18 05:07:57;;;;;;;;;;;;;;;11.82;64.37;99752.13;4113855;28;19909;-68
2024/03/18 05:09:58;;;;;;;;;;;;;;;11.83;64.33;99747.59;4114116;28;19948;-67
2024/03/18 05:11:58;;;;;;;;;;;;;;;11.88;64.27;99747.97;4113423;28;19914;-68
2024/03/18 05:13:59;;;;;;;;;;;;;;;11.92;64.10;99756.50;4114120;28;19918;-68
2024/03/18 05:15:59;;;;;;;;;;;;;;;11.85;63.95;99753.63;4112099;28;20567;-69
2024/03/18 05:17:59;;;;;;;;;;;;;;;11.85;64.51;99751.78;4114221;28;19985;-68
2024/03/18 05:20:00;;;;;;;;;;;;;;;11.91;64.11;99754.84;4122323;28;19914;-70
2024/03/18 05:22:00;;;;;;;;;;;;;;;11.90;64.24;99754.00;4125086;28;19910;-70
2024/03/18 05:24:01;;;;;;;;;;;;;;;11.90;64.28;99754.00;4113119;28;19917;-68
2024/03/18 05:26:01;;;;;;;;;;;;;;;11.86;64.53;99760.66;4113627;28;19917;-67
2024/03/18 05:28:01;;;;;;;;;;;;;;;11.88;64.01;99760.50;4113706;28;19910;-67
2024/03/18 05:30:02;;;;;;;;;;;;;;;11.77;64.88;99764.31;4114314;28;19917;-68
2024/03/18 05:32:09;;;;;;;;;;;;;;;11.74;64.91;99765.47;4113996;28;19938;-67
2024/03/18 05:34:09;;;;;;;;;;;;;;;11.75;65.11;99759.13;4113037;28;19913;-68
2024/03/18 05:36:10;;;;;;;;;;;;;;;11.82;64.69;99756.63;4112551;28;20008;-69
2024/03/18 05:38:10;;;;;;;;;;;;;;;11.81;64.55;99754.94;4113771;28;19933;-68
2024/03/18 05:40:10;;;;;;;;;;;;;;;11.44;66.01;99753.41;4113871;28;19938;-68
2024/03/18 05:42:11;;;;;;;;;;;;;;;11.35;66.38;99750.66;4135739;28;20008;-69
2024/03/18 05:44:11;;;;;;;;;;;;;;;11.49;66.20;99751.09;4144919;28;20173;-70
2024/03/18 05:46:21;;;;;;;;;;;;;;;11.39;66.24;99754.72;4150328;28;19912;-69
2024/03/18 05:48:21;;;;;;;;;;;;;;;11.41;66.13;99754.56;4148842;28;19919;-68
2024/03/18 05:50:22;;;;;;;;;;;;;;;11.55;65.85;99756.66;4135794;28;19913;-69
2024/03/18 05:52:23;;;;;;;;;;;;;;;11.62;65.40;99748.81;4129886;28;19910;-67
2024/03/18 05:54:23;;;;;;;;;;;;;;;11.69;65.13;99751.69;4130114;28;19914;-71
2024/03/18 05:56:23;;;;;;;;;;;;;;;11.70;64.80;99756.91;4128000;28;19960;-68
2024/03/18 05:58:24;;;;;;;;;;;;;;;11.82;64.73;99753.94;4129467;28;19917;-69
2024/03/18 06:00:24;;;;;;;;;;;;;;;11.92;64.33;99751.97;4129356;28;20441;-67
2024/03/18 06:02:24;;;;;;;;;;;;;;;11.88;64.33;99750.66;4129220;28;20293;-69
2024/03/18 06:04:25;;;;;;;;;;;;;;;11.91;64.08;99747.63;4128379;28;20263;-68
2024/03/18 06:06:25;;;;;;;;;;;;;;;11.95;64.20;99754.34;4127781;28;19910;-66
2024/03/18 06:08:25;;;;;;;;;;;;;;;11.96;64.33;99747.13;4127078;28;20422;-68
2024/03/18 06:10:26;;;;;;;;;;;;;;;11.98;64.04;99745.19;4128719;28;19913;-67
2024/03/18 06:12:30;;;;;;;;;;;;;;;11.88;64.41;99741.75;4128123;28;20293;-68
2024/03/18 06:14:31;;;;;;;;;;;;;;;11.92;64.29;99745.81;4123868;28;19964;-69
2024/03/18 06:16:31;;;;;;;;;;;;;;;11.97;64.30;99751.50;4127201;28;19924;-67
2024/03/18 06:18:36;;;;;;;;;;;;;;;12.03;64.29;99748.22;4129705;28;19914;-67
2024/03/18 06:20:42;;;;;;;;;;;;;;;12.16;64.20;99750.44;4129778;28;20009;-70
2024/03/18 06:22:42;;;;;;;;;;;;;;;11.94;64.54;99750.00;4129215;28;20533;-67
2024/03/18 06:27:03;;;;;;;;;;;;;;;12.14;64.10;99753.28;4130948;28;20366;-69
2024/03/18 06:29:03;;;;;;;;;;;;;;;12.19;64.12;99755.47;4133461;28;19916;-68
2024/03/18 06:31:05;;;;;;;;;;;;;;;12.16;63.94;99758.47;4133206;28;19914;-67
2024/03/18 06:33:05;;;;;;;;;;;;;;;12.20;63.80;99756.31;4132828;28;19909;-68
2024/03/18 06:35:06;;;;;;;;;;;;;;;12.22;63.76;99763.19;4132432;28;19914;-68
2024/03/18 06:37:06;;;;;;;;;;;;;;;12.25;63.88;99757.50;4131962;28;19917;-68
2024/03/18 06:39:08;;;;;;;;;;;;;;;12.26;63.50;99753.84;4131522;28;19917;-69
2024/03/18 06:41:13;;;;;;;;;;;;;;;12.29;63.56;99756.16;4132355;28;19976;-68
2024/03/18 06:43:14;;;;;;;;;;;;;;;12.22;63.68;99757.00;4130390;28;20506;-67
2024/03/18 06:45:14;;;;;;;;;;;;;;;12.21;63.61;99750.78;4132311;28;19916;-67
2024/03/18 06:47:16;;;;;;;;;;;;;;;12.24;63.70;99749.63;4132593;28;19995;-67
2024/03/18 06:49:16;;;;;;;;;;;;;;;12.07;63.98;99748.75;4131646;28;19917;-69
2024/03/18 06:51:16;;;;;;;;;;;;;;;12.07;64.25;99756.78;4133121;28;19936;-69
2024/03/18 06:53:17;;;;;;;;;;;;;;;12.02;64.20;99751.91;4134712;28;20004;-68
2024/03/18 06:55:17;;;;;;;;;;;;;;;12.06;64.23;99757.78;4132096;28;19909;-67
2024/03/18 06:57:17;;;;;;;;;;;;;;;12.11;64.40;99755.44;4132390;28;19910;-67
2024/03/18 06:59:18;;;;;;;;;;;;;;;12.21;63.96;99749.97;4132056;28;19909;-69
2024/03/18 07:01:18;;;;;;;;;;;;;;;12.10;63.85;99754.59;4132347;28;19920;-70
2024/03/18 07:03:21;;;;;;;;;;;;;;;12.14;64.02;99757.81;4129453;28;20398;-67
2024/03/18 07:05:22;;;;;;;;;;;;;;;12.11;63.60;99750.94;4128897;28;20277;-69
2024/03/18 07:07:22;;;;;;;;;;;;;;;12.19;63.99;99757.31;4142122;28;19953;-68
2024/03/18 07:09:33;;;;;;;;;;;;;;;12.25;63.54;99757.50;4148225;28;19918;-67
2024/03/18 07:11:33;;;;;;;;;;;;;;;12.32;63.36;99760.38;4150016;28;19909;-67
2024/03/18 07:13:35;;;;;;;;;;;;;;;12.35;63.08;99759.22;4149995;28;19945;-70
2024/03/18 07:15:37;;;;;;;;;;;;;;;12.27;63.23;99758.19;4147881;28;20501;-68
2024/03/18 07:17:38;;;;;;;;;;;;;;;12.24;63.41;99763.88;4147281;28;19909;-67
2024/03/18 07:19:40;;;;;;;;;;;;;;;12.14;63.80;99768.53;4149215;28;19970;-74
2024/03/18 07:21:41;;;;;;;;;;;;;;;12.14;63.73;99779.25;4143870;28;19967;-67
2024/03/18 07:23:41;;;;;;;;;;;;;;;12.17;64.02;99776.25;4132441;28;20505;-68
2024/03/18 07:25:42;;;;;;;;;;;;;;;12.27;63.96;99771.59;4131970;28;19913;-69
2024/03/18 07:27:43;;;;;;;;;;;;;;;12.23;64.31;99778.28;4132773;28;19916;-66
2024/03/18 07:29:44;;;;;;;;;;;;;;;12.38;64.26;99772.28;4131973;28;19961;-68
2024/03/18 07:31:44;;;;;;;;;;;;;;;12.47;64.24;99776.66;4132467;28;20544;-67
2024/03/18 07:33:45;;;;;;;;;;;;;;;12.50;63.84;99786.22;4132105;28;19909;-66
2024/03/18 07:35:45;;;;;;;;;;;;;;;12.48;64.15;99776.50;4131627;28;19917;-67
2024/03/18 07:37:46;;;;;;;;;;;;;;;12.47;64.34;99779.31;4130189;28;19991;-67
2024/03/18 07:39:46;;;;;;;;;;;;;;;12.46;65.15;99783.03;4131790;28;19985;-67
2024/03/18 07:41:47;;;;;;;;;;;;;;;12.39;65.78;99782.00;4131983;28;19917;-68
2024/03/18 07:43:47;;;;;;;;;;;;;;;12.39;64.74;99779.31;4131592;28;19923;-66
2024/03/18 07:45:48;;;;;;;;;;;;;;;12.33;64.71;99770.06;4131718;28;20015;-69
2024/03/18 07:47:48;;;;;;;;;;;;;;;12.39;64.71;99771.28;4132210;28;19932;-67
2024/03/18 07:49:48;;;;;;;;;;;;;;;12.35;65.22;99767.25;4132787;28;19921;-67
2024/03/18 07:51:49;;;;;;;;;;;;;;;12.12;65.59;99773.19;4133372;28;19937;-67
2024/03/18 07:53:51;;;;;;;;;;;;;;;12.24;65.46;99777.28;4146934;28;19973;-67
2024/03/18 07:56:03;;;;;;;;;;;;;;;12.25;66.11;99770.91;4147393;28;19941;-68
2024/03/18 07:58:03;;;;;;;;;;;;;;;12.43;65.92;99776.13;4140404;28;19913;-68
2024/03/18 08:00:06;;;;;;;;;;;;;;;12.35;66.23;99772.63;4132361;28;19917;-68
2024/03/18 08:02:06;;;;;;;;;;;;;;;12.28;66.66;99770.56;4131354;28;19944;-68
2024/03/18 08:04:07;;;;;;;;;;;;;;;12.32;66.53;99774.59;4131786;28;19965;-68
2024/03/18 08:06:10;;;;;;;;;;;;;;;12.32;66.63;99787.19;4131454;28;19936;-69
2024/03/18 08:08:11;;;;;;;;;;;;;;;12.37;65.88;99778.66;4130904;28;20334;-67
2024/03/18 08:10:11;;;;;;;;;;;;;;;12.41;65.97;99782.69;4131479;28;19917;-67
2024/03/18 08:12:11;;;;;;;;;;;;;;;12.32;67.26;99779.97;4131634;28;19909;-69
2024/03/18 08:14:12;;;;;;;;;;;;;;;12.34;66.15;99785.16;4129974;28;20578;-68
2024/03/18 08:16:13;;;;;;;;;;;;;;;12.25;66.58;99773.59;4131137;28;19975;-67
2024/03/18 08:18:13;;;;;;;;;;;;;;;12.19;67.29;99774.22;4131218;28;20271;-68
2024/03/18 08:20:14;;;;;;;;;;;;;;;12.28;66.69;99775.94;4132664;28;19952;-69
2024/03/18 08:22:16;;;;;;;;;;;;;;;12.37;66.52;99775.97;4143598;28;19914;-69
2024/03/18 08:24:16;;;;;;;;;;;;;;;12.37;66.43;99774.13;4145343;28;20155;-69
2024/03/18 08:26:17;;;;;;;;;;;;;;;12.42;66.64;99781.69;4135390;28;20012;-67
2024/03/18 08:28:18;;;;;;;;;;;;;;;12.42;66.51;99771.78;4131222;28;19910;-67
2024/03/18 08:30:18;;;;;;;;;;;;;;;11.98;67.85;99770.16;4127467;28;19922;-68
2024/03/18 08:32:19;;;;;;;;;;;;;;;12.21;67.61;99779.44;4128283;28;20071;-70
2024/03/18 08:34:19;;;;;;;;;;;;;;;12.34;67.04;99777.13;4128077;28;20088;-68
2024/03/18 08:36:19;;;;;;;;;;;;;;;12.39;67.16;99780.16;4130334;28;19968;-67
2024/03/18 08:38:20;;;;;;;;;;;;;;;12.38;66.94;99772.28;4140692;28;19918;-69
2024/03/18 08:40:20;;;;;;;;;;;;;;;12.43;66.70;99776.13;4146550;28;19924;-68
2024/03/18 08:42:20;;;;;;;;;;;;;;;12.14;67.64;99773.88;4148486;28;19965;-69
2024/03/18 08:44:21;;;;;;;;;;;;;;;12.35;67.41;99770.75;4147750;28;19945;-68
2024/03/18 08:46:23;;;;;;;;;;;;;;;12.44;67.12;99771.63;4147011;28;19914;-69
2024/03/18 08:48:26;;;;;;;;;;;;;;;12.50;66.65;99776.31;4147367;28;19952;-68
2024/03/18 08:50:26;;;;;;;;;;;;;;;12.52;66.58;99774.34;4147069;28;19960;-68
2024/03/18 08:52:27;;;;;;;;;;;;;;;12.62;66.80;99779.53;4130665;28;19913;-67
2024/03/18 08:54:30;;;;;;;;;;;;;;;12.55;66.77;99779.38;4131174;28;20468;-68
2024/03/18 08:56:30;;;;;;;;;;;;;;;12.46;67.01;99780.34;4131053;28;19913;-68
2024/03/18 08:58:31;;;;;;;;;;;;;;;12.50;67.31;99775.50;4130841;28;19973;-68
2024/03/18 09:00:31;;;;;;;;;;;;;;;12.62;66.81;99791.13;4130760;28;20341;-66
2024/03/18 09:02:31;;;;;;;;;;;;;;;12.55;67.51;99782.06;4130828;28;19965;-71
2024/03/18 09:04:32;;;;;;;;;;;;;;;12.62;67.28;99780.38;4129688;28;20380;-68
2024/03/18 09:06:33;;;;;;;;;;;;;;;12.68;67.04;99775.34;4130593;28;19978;-67
2024/03/18 09:08:34;;;;;;;;;;;;;;;12.72;66.72;99769.50;4125931;28;20600;-67
2024/03/18 09:10:34;;;;;;;;;;;;;;;12.60;67.17;99776.19;4130923;28;19909;-68
2024/03/18 09:12:34;;;;;;;;;;;;;;;12.69;66.23;99771.66;4130598;28;19914;-68
2024/03/18 09:14:34;;;;;;;;;;;;;;;12.69;66.44;99774.34;4130378;28;19920;-67
2024/03/18 09:16:35;;;;;;;;;;;;;;;12.48;67.43;99778.31;4129918;28;19918;-69
2024/03/18 09:18:35;;;;;;;;;;;;;;;12.38;68.14;99791.03;4130255;28;19913;-68
2024/03/18 09:20:39;;;;;;;;;;;;;;;12.49;67.97;99785.38;4130281;28;19960;-67
2024/03/18 09:22:40;;;;;;;;;;;;;;;12.55;68.22;99787.41;4130420;28;19956;-67
2024/03/18 09:24:40;;;;;;;;;;;;;;;12.54;68.11;99788.41;4130964;28;19917;-68
2024/03/18 09:26:41;;;;;;;;;;;;;;;12.63;67.74;99781.22;4130288;28;20008;-69
2024/03/18 09:28:41;;;;;;;;;;;;;;;12.59;67.82;99783.38;4129919;28;19909;-68
2024/03/18 09:30:42;;;;;;;;;;;;;;;12.78;67.39;99778.72;4129566;28;20012;-67
2024/03/18 09:32:43;;;;;;;;;;;;;;;12.85;67.07;99773.53;4129861;28;20585;-67
2024/03/18 09:34:43;;;;;;;;;;;;;;;12.89;66.15;99781.09;4129712;28;19909;-69
2024/03/18 09:36:43;;;;;;;;;;;;;;;12.90;66.68;99782.78;4129201;28;19976;-68
2024/03/18 09:38:44;;;;;;;;;;;;;;;12.97;66.61;99779.41;4129774;28;19918;-68
2024/03/18 09:40:44;;;;;;;;;;;;;;;13.06;66.28;99781.94;4130396;28;19910;-68
2024/03/18 09:42:45;;;;;;;;;;;;;;;13.07;66.84;99788.13;4130304;28;19917;-68
2024/03/18 09:44:46;;;;;;;;;;;;;;;12.90;65.72;99784.59;4130470;28;19909;-69
2024/03/18 09:46:47;;;;;;;;;;;;;;;12.96;66.46;99781.28;4131136;28;19913;-69
2024/03/18 09:48:47;;;;;;;;;;;;;;;12.99;66.75;99790.81;4147703;28;19909;-69
2024/03/18 09:50:48;;;;;;;;;;;;;;;12.94;66.24;99788.63;4132775;28;19964;-70
2024/03/18 09:52:49;;;;;;;;;;;;;;;12.84;66.94;99782.59;4131730;28;20439;-68
2024/03/18 09:54:49;;;;;;;;;;;;;;;13.03;66.73;99792.19;4135129;28;19983;-69
2024/03/18 09:57:16;;;;;;;;;;;;;;;12.94;67.04;99792.16;4135695;28;19914;-68
2024/03/18 09:59:16;;;;;;;;;;;;;;;13.03;66.85;99795.69;4129295;28;19914;-70
2024/03/18 10:01:19;;;;;;;;;;;;;;;13.14;67.11;99799.06;4132360;28;19980;-71
2024/03/18 10:03:20;;;;;;;;;;;;;;;13.17;67.29;99796.88;4133079;28;19913;-69
2024/03/18 10:05:20;;;;;;;;;;;;;;;13.18;66.93;99803.06;4133016;28;20338;-67
2024/03/18 10:07:21;;;;;;;;;;;;;;;13.22;67.17;99794.53;4133095;28;19956;-68
2024/03/18 10:09:25;;;;;;;;;;;;;;;13.09;67.54;99796.88;4133551;28;19967;-68
2024/03/18 10:11:26;;;;;;;;;;;;;;;13.08;67.39;99804.06;4132544;28;19914;-68
2024/03/18 10:13:26;;;;;;;;;;;;;;;13.16;67.82;99797.88;4133340;28;20271;-68
2024/03/18 10:15:27;;;;;;;;;;;;;;;13.23;67.32;99804.22;4132504;28;19910;-67
2024/03/18 10:17:28;;;;;;;;;;;;;;;13.26;67.60;99803.09;4132539;28;19921;-67
2024/03/18 10:19:29;;;;;;;;;;;;;;;13.21;67.63;99800.91;4132981;28;20306;-68
2024/03/18 10:21:30;;;;;;;;;;;;;;;13.32;67.46;99798.91;4132653;28;19917;-69
2024/03/18 10:23:30;;;;;;;;;;;;;;;13.21;67.64;99800.91;4133038;28;19909;-68
2024/03/18 10:25:31;;;;;;;;;;;;;;;13.21;68.05;99802.72;4132550;28;19964;-67
2024/03/18 10:27:34;;;;;;;;;;;;;;;13.18;67.78;99805.75;4147205;28;19917;-68
2024/03/18 10:29:35;;;;;;;;;;;;;;;12.96;68.26;99808.09;4133550;28;19940;-69
2024/03/18 10:31:39;;;;;;;;;;;;;;;13.08;68.63;99805.94;4138328;28;19957;-67
2024/03/18 10:33:42;;;;;;;;;;;;;;;13.07;68.32;99805.09;4132984;28;19922;-68